Pittsburg, CA (94565)

2:49 PM PST on January 28, 2015 (GMT -0800)
Myrtle Drive | Change Station
CLOSE
Current Station
Personal Weather Station
Location: Concord, CA
Elevation: 348 ft
Nearby Weather Stations

Elev 348 ft 37.96 °N, 121.95 °W | Updated 2 minutes ago

Clear
Clear
65.2 °F
Feels Like 65.2 °F
N
1.0
Wind Variable Wind from East
Gusts 3.0 mph

Today
High -- | Low -- °F
--% Chance of Precip.
Yesterday
High -- | Low -- °F
Precip. -- in
7:15 AM 5:26 PM
Waxing Gibbous, 68% visible
Pressure 30.14 in
Visibility 8.0 miles
Clouds Clear
Dew Point 46 °F
Humidity 51%
Rainfall 0.00 in
Snow Depth Not available.
UV 3 out of 12
Pollen 5.80 out of 12
Air Quality Not available.
Flu Activity Not available.
METAR KCCR 282153Z 14005KT 8SM CLR 19/07 A3018 RMK AO2 SLP205 T01890067

More Conditions Fewer Conditions

Pressure 30.14 in
Visibility 8.0 miles
Clouds Clear
Dew Point 46 °F
Humidity 51%
Rainfall 0.00 in
Snow Depth Not available.
UV 3 out of 12
Pollen 5.80 out of 12
Air Quality Not available.
Flu Activity Not available.
METAR KCCR 282153Z 14005KT 8SM CLR 19/07 A3018 RMK AO2 SLP205 T01890067

More Conditions Fewer Conditions

10-Day Weather Forecast

Almanac

Astronomy

Jan. 28, 2015 Rise Set
Actual Time
Civil Twilight
Nautical Twilight
Astronomical Twilight
Moon
Length of Visible Light
Length of Day
Tomorrow will be .
, % of the Moon is Illuminated

Today's Extremes

State Highs State Lows

Community

WunderPhotos

Upload Photos

1,791,287 photos uploaded!

WunderBlogs® & News

Nearby

Air Quality

  Air Quality AQ Index Pollutant
Not available.

Snow Depth

Station Depth Elevation

Earthquake Activity

City Distance Mag. Time & Date
Minimum magnitude displayed is 2.5.

Coastal Water Temperatures

Place Temperature

Nearby Weather Stations